»·PEaware :: UAL131 CYVR-KSFO

UAL131 :: CYVR-KSFO

FLIGHT INFORMATION

Flight Status: Arrived
Operator:
United Airlines
More flights by this operator :: More flights under this callsign
Pilot: Brad Z. (13827)
Aircraft: AIRBUS A320
(A320)
More flights by this aircraft type
Origin: CYVR Vancouver Intl
Canada
Destination: KSFO San Francisco Intl
United States
More flights between these airports :: More routes between these airports
Route: +YYJ J589 RBG ENVIE MLBEC BDEGA2
File this flight plan on PilotEdge
Remarks:
Altitude:
(Current/Filed)
350ft
Speed:
(Current/Filed)
541kts
Departed: 18-May-17 03:05 PM
Arrived: 18-May-17 04:45 PM
Distance/Time
Traveled:
696nm/1:39
Distance/Time
To Go:
Arrived

Flight Plot

Page will automatically refresh every two minutes.

Flight plan parsing failed; only flown route is shown


Map Options




Map Legend


Flown Route
Filed Route
Departure Airport
Arrival Airport
Navaid (VOR, NDB)
Fix

Horizontal Profiles

Position Reports

Time Latitude Longitude Heading Altitude Ground
Speed
18-May-17 14:47 49.198202 -123.172771 242 28ft 0kts
18-May-17 14:48 49.198202 -123.172771 242 28ft 0kts
18-May-17 14:49 49.198202 -123.172771 242 28ft 0kts
18-May-17 14:50 49.198202 -123.172771 242 28ft 0kts
18-May-17 14:51 49.198202 -123.172771 242 28ft 0kts
18-May-17 14:52 49.198202 -123.172771 242 28ft 0kts
18-May-17 14:53 49.198202 -123.172771 242 28ft 0kts
18-May-17 14:54 49.198202 -123.172771 242 28ft 0kts
18-May-17 14:55 49.198202 -123.172771 242 28ft 0kts
18-May-17 14:56 49.198202 -123.172771 242 28ft 0kts
18-May-17 14:57 49.198202 -123.172771 242 28ft 0kts
18-May-17 14:58 49.198302 -123.172442 251 28ft 2kts
18-May-17 14:59 49.198114 -123.171879 0 28ft 1kts
18-May-17 15:00 49.198115 -123.171879 0 28ft 0kts
18-May-17 15:01 49.198115 -123.171879 0 28ft 0kts
18-May-17 15:02 49.198127 -123.171879 0 28ft 0kts
18-May-17 15:03 49.199545 -123.170494 89 28ft 13kts
18-May-17 15:04 49.198836 -123.164130 101 28ft 15kts
18-May-17 15:05 49.199213 -123.160621 4 28ft 7kts
18-May-17 15:06 49.200618 -123.161035 281 28ft 5kts
18-May-17 15:07 49.205905 -123.209307 278 921ft 159kts
18-May-17 15:08 49.214122 -123.283967 278 2633ft 213kts
18-May-17 15:09 49.183556 -123.355193 184 4746ft 262kts
18-May-17 15:10 49.109745 -123.373861 191 7858ft 275kts
18-May-17 15:11 49.032437 -123.396256 191 10710ft 288kts
18-May-17 15:12 48.945204 -123.421490 191 11678ft 356kts
18-May-17 15:13 48.847736 -123.449709 192 14079ft 364kts
18-May-17 15:14 48.745336 -123.479022 193 15889ft 384kts
18-May-17 15:15 48.637147 -123.480502 180 17872ft 398kts
18-May-17 15:16 48.524968 -123.475214 182 19525ft 413kts
18-May-17 15:17 48.407333 -123.469973 182 20955ft 431kts
18-May-17 15:18 48.288251 -123.464779 182 22798ft 434kts
18-May-17 15:19 48.162811 -123.458699 182 23833ft 453kts
18-May-17 15:20 48.034345 -123.452327 183 24949ft 467kts
18-May-17 15:21 47.902409 -123.445974 183 25990ft 480kts
18-May-17 15:22 47.766653 -123.439172 183 26813ft 496kts
18-May-17 15:23 47.627590 -123.432546 183 27741ft 507kts
18-May-17 15:24 47.485541 -123.425596 184 28884ft 511kts
18-May-17 15:25 47.341625 -123.418690 184 29702ft 522kts
18-May-17 15:26 47.196275 -123.411741 185 30784ft 523kts
18-May-17 15:27 47.050254 -123.404827 185 31663ft 528kts
18-May-17 15:28 46.903013 -123.398239 185 32503ft 532kts
18-May-17 15:29 46.756938 -123.391557 186 33725ft 525kts
18-May-17 15:30 46.609886 -123.384909 185 34386ft 529kts
18-May-17 15:31 46.463976 -123.378389 185 35226ft 524kts
18-May-17 15:32 46.318051 -123.371860 185 35257ft 524kts
18-May-17 15:33 46.172565 -123.365398 185 35223ft 523kts
18-May-17 15:34 46.027495 -123.358937 185 35194ft 521kts
18-May-17 15:35 45.881940 -123.352647 185 35181ft 524kts
18-May-17 15:36 45.735755 -123.346225 185 35206ft 527kts
18-May-17 15:37 45.589205 -123.339853 185 35228ft 527kts
18-May-17 15:38 45.442597 -123.333440 185 35219ft 525kts
18-May-17 15:39 45.296731 -123.327263 185 35176ft 525kts
18-May-17 15:40 45.150443 -123.320953 185 35184ft 527kts
18-May-17 15:41 45.003729 -123.314743 184 35243ft 528kts
18-May-17 15:42 44.856689 -123.308515 184 35226ft 528kts
18-May-17 15:43 44.710158 -123.302351 184 35268ft 526kts
18-May-17 15:44 44.563865 -123.296235 184 35233ft 526kts
18-May-17 15:45 44.418125 -123.296942 189 35229ft 520kts
18-May-17 15:46 44.273942 -123.303765 188 35155ft 519kts
18-May-17 15:47 44.129158 -123.310269 188 35116ft 522kts
18-May-17 15:48 43.983627 -123.316686 188 35065ft 527kts
18-May-17 15:49 43.836665 -123.323340 188 35120ft 527kts
18-May-17 15:50 43.690340 -123.329780 188 35230ft 526kts
18-May-17 15:51 43.544858 -123.336162 188 35224ft 521kts
18-May-17 15:52 43.399944 -123.342580 188 35276ft 516kts
18-May-17 15:53 43.255578 -123.348885 188 34893ft 521kts
18-May-17 15:54 43.110676 -123.346884 181 35171ft 523kts
18-May-17 15:55 42.964638 -123.334571 182 35121ft 529kts
18-May-17 15:56 42.817229 -123.323054 181 35105ft 532kts
18-May-17 15:57 42.669775 -123.311386 181 35320ft 529kts
18-May-17 15:58 42.522905 -123.299876 181 35087ft 527kts
18-May-17 15:59 42.377610 -123.288633 181 35146ft 522kts
18-May-17 16:00 42.232286 -123.277291 181 35153ft 525kts
18-May-17 16:01 42.086196 -123.265958 181 35100ft 527kts
18-May-17 16:02 41.938932 -123.254732 181 35103ft 526kts
18-May-17 16:03 41.792718 -123.243389 181 35204ft 524kts
18-May-17 16:04 41.647949 -123.232355 181 35239ft 521kts
18-May-17 16:05 41.503617 -123.221452 181 35160ft 519kts
18-May-17 16:06 41.360321 -123.210524 181 35153ft 515kts
18-May-17 16:07 41.217290 -123.196285 179 35132ft 517kts
18-May-17 16:08 41.072781 -123.181223 179 35108ft 522kts
18-May-17 16:09 40.927153 -123.165975 179 35256ft 522kts
18-May-17 16:10 40.783211 -123.151010 179 35279ft 521kts
18-May-17 16:11 40.638532 -123.136109 179 35122ft 521kts
18-May-17 16:12 40.494410 -123.121279 179 35075ft 517kts
18-May-17 16:13 40.352215 -123.106685 179 35117ft 510kts
18-May-17 16:14 40.211377 -123.092306 178 35070ft 507kts
18-May-17 16:15 40.072187 -123.078139 178 33225ft 504kts
18-May-17 16:16 39.930968 -123.063889 178 31220ft 507kts
18-May-17 16:17 39.791477 -123.049794 178 30046ft 499kts
18-May-17 16:18 39.654191 -123.036056 178 28939ft 492kts
18-May-17 16:19 39.518349 -123.022453 178 27809ft 484kts
18-May-17 16:20 39.384933 -123.009156 178 26692ft 477kts
18-May-17 16:21 39.253482 -122.996170 177 25579ft 470kts
18-May-17 16:22 39.123445 -122.983285 177 24067ft 462kts
18-May-17 16:23 38.995531 -122.970736 177 23963ft 460kts
18-May-17 16:24 38.889104 -122.960275 177 23900ft 460kts
18-May-17 16:25 38.742122 -122.919439 168 23890ft 463kts
18-May-17 16:26 38.616656 -122.882607 168 24006ft 463kts
18-May-17 16:27 38.517571 -122.853339 168 23826ft 418kts
18-May-17 16:28 38.406375 -122.820770 168 22193ft 405kts
18-May-17 16:29 38.279151 -122.783387 168 20320ft 390kts
18-May-17 16:30 38.190872 -122.757778 168 18909ft 384kts
18-May-17 16:31 38.087011 -122.727673 167 17030ft 383kts
18-May-17 16:32 37.969369 -122.693587 166 15292ft 369kts
18-May-17 16:33 37.889829 -122.664559 142 14109ft 354kts
18-May-17 16:34 37.817606 -122.586875 135 12912ft 333kts
18-May-17 16:35 37.747059 -122.512527 136 11423ft 326kts
18-May-17 16:36 37.681150 -122.442335 135 10992ft 281kts
18-May-17 16:37 37.623860 -122.381296 135 10980ft 267kts
18-May-17 16:38 37.557470 -122.336146 150 9950ft 289kts
18-May-17 16:39 37.485302 -122.290936 151 8797ft 273kts
18-May-17 16:40 37.420007 -122.243455 121 7335ft 272kts
18-May-17 16:41 37.416338 -122.161466 34 6079ft 241kts
18-May-17 16:42 37.471143 -122.126837 14 5357ft 215kts
18-May-17 16:43 37.524691 -122.159523 320 3793ft 228kts
18-May-17 16:44 37.556418 -122.226714 298 2964ft 203kts
18-May-17 16:45 37.583828 -122.290754 298 1767ft 188kts
18-May-17 16:46 37.602893 -122.337075 293 446ft 126kts
18-May-17 16:47 37.615998 -122.368376 294 29ft 0kts

Navigation Log

Ident Type
Flight plan parsing failed, navigation log unavailable